createdAt,value
2019-03-20T00:01:45.904Z,100608.06
2019-03-20T00:04:16.839Z,100610.32
2019-03-20T00:06:45.985Z,100615.11
2019-03-20T00:09:16.059Z,100611.17
2019-03-20T00:11:45.485Z,100614.28
2019-03-20T00:14:15.234Z,100612.51
2019-03-20T00:16:45.390Z,100609.84
2019-03-20T00:19:14.580Z,100608.11
2019-03-20T00:21:44.592Z,100613.78
2019-03-20T00:24:18.533Z,100615.13
2019-03-20T00:26:47.959Z,100616.49
2019-03-20T00:29:17.135Z,100619.05
2019-03-20T00:31:46.609Z,100619.56
2019-03-20T00:34:19.694Z,100619.66
2019-03-20T00:36:49.392Z,100613.05
2019-03-20T00:39:18.690Z,100613.11
2019-03-20T00:41:47.860Z,100614.02
2019-03-20T00:44:18.103Z,100613.59
2019-03-20T00:46:48.397Z,100611.03
2019-03-20T00:49:19.370Z,100607.95
2019-03-20T00:51:48.866Z,100606.58
2019-03-20T00:54:18.341Z,100614.86
2019-03-20T00:56:47.505Z,100614.83
2019-03-20T00:59:28.556Z,100609.22
2019-03-20T01:01:58.283Z,100600.92
2019-03-20T01:04:30.630Z,100602.70
2019-03-20T01:07:00.331Z,100595.36
2019-03-20T01:09:29.515Z,100593.59
2019-03-20T01:11:58.951Z,100589.30
2019-03-20T01:14:30.511Z,100591.91
2019-03-20T01:17:02.182Z,100590.68
2019-03-20T01:19:32.717Z,100595.05
2019-03-20T01:22:04.791Z,100596.78
2019-03-20T01:24:37.078Z,100592.86
2019-03-20T01:27:06.540Z,100593.77
2019-03-20T01:29:36.747Z,100585.08
2019-03-20T01:32:06.231Z,100595.52
2019-03-20T01:34:37.075Z,100591.16
2019-03-20T01:37:06.568Z,100595.09
2019-03-20T01:39:36.007Z,100593.80
2019-03-20T01:42:06.285Z,100598.56
2019-03-20T01:44:36.022Z,100606.81
2019-03-20T01:47:06.800Z,100603.33
2019-03-20T01:49:36.673Z,100604.19
2019-03-20T01:52:07.130Z,100601.59
2019-03-20T01:54:39.777Z,100599.84
2019-03-20T01:57:09.196Z,100608.52
2019-03-20T01:59:40.415Z,100608.56
2019-03-20T02:02:13.135Z,100615.50
2019-03-20T02:04:44.323Z,100616.81
2019-03-20T02:07:15.545Z,100620.31
2019-03-20T02:09:45.497Z,100618.59
2019-03-20T02:12:15.224Z,100622.95
2019-03-20T02:14:46.039Z,100623.36
2019-03-20T02:17:17.058Z,100628.17
2019-03-20T02:19:46.243Z,100625.54
2019-03-20T02:22:15.397Z,100625.53
2019-03-20T02:24:47.549Z,100624.68
2019-03-20T02:27:18.099Z,100625.12
2019-03-20T02:29:48.466Z,100625.11
2019-03-20T02:32:19.465Z,100622.91
2019-03-20T02:34:52.298Z,100626.38
2019-03-20T02:37:22.797Z,100626.41
2019-03-20T02:39:53.358Z,100623.76
2019-03-20T02:42:22.531Z,100626.84
2019-03-20T02:44:51.683Z,100629.45
2019-03-20T02:47:23.149Z,100632.06
2019-03-20T02:49:53.155Z,100631.62
2019-03-20T02:52:22.332Z,100630.32
2019-03-20T02:54:52.567Z,100628.58
2019-03-20T02:57:22.003Z,100631.63
2019-03-20T02:59:53.119Z,100633.36
2019-03-20T03:02:22.648Z,100635.10
2019-03-20T03:04:54.193Z,100626.42
2019-03-20T03:07:23.987Z,100631.63
2019-03-20T03:09:54.808Z,100636.86
2019-03-20T03:12:26.187Z,100634.66
2019-03-20T03:15:02.576Z,100629.89
2019-03-20T03:17:32.591Z,100634.22
2019-03-20T03:20:02.142Z,100638.14
2019-03-20T03:22:35.751Z,100638.55
2019-03-20T03:25:07.797Z,100634.20
2019-03-20T03:27:38.443Z,100634.22
2019-03-20T03:30:10.067Z,100640.75
2019-03-20T03:32:41.202Z,100647.26
2019-03-20T03:35:16.790Z,100649.84
2019-03-20T03:37:47.271Z,100645.08
2019-03-20T03:40:16.802Z,100643.36
2019-03-20T03:42:48.447Z,100635.97
2019-03-20T03:45:20.176Z,100635.54
2019-03-20T03:47:51.104Z,100636.42
2019-03-20T03:50:20.539Z,100632.92
2019-03-20T03:52:53.372Z,100641.17
2019-03-20T03:55:38.477Z,100641.15
2019-03-20T03:58:09.068Z,100642.03
2019-03-20T04:00:40.181Z,100646.81
2019-03-20T04:03:09.626Z,100647.25
2019-03-20T04:05:44.915Z,100655.06
2019-03-20T04:08:14.391Z,100649.42
2019-03-20T04:10:47.271Z,100654.64
2019-03-20T04:13:18.046Z,100655.08
2019-03-20T04:15:48.059Z,100654.55
2019-03-20T04:18:18.117Z,100651.47
2019-03-20T04:20:49.370Z,100651.05
2019-03-20T04:23:20.855Z,100649.30
2019-03-20T04:25:52.958Z,100647.14
2019-03-20T04:28:25.583Z,100648.03
2019-03-20T04:30:56.543Z,100652.81
2019-03-20T04:33:26.302Z,100649.37
2019-03-20T04:35:57.272Z,100662.79
2019-03-20T04:38:26.937Z,100656.74
2019-03-20T04:40:58.746Z,100658.05
2019-03-20T04:43:33.417Z,100658.91
2019-03-20T04:46:08.719Z,100671.50
2019-03-20T04:48:40.277Z,100677.58
2019-03-20T04:51:10.548Z,100677.98
2019-03-20T04:53:40.061Z,100680.12
2019-03-20T04:56:14.049Z,100673.64
2019-03-20T04:58:46.526Z,100678.34
2019-03-20T05:01:16.240Z,100685.33
2019-03-20T05:03:45.941Z,100692.66
2019-03-20T05:06:15.743Z,100685.28
2019-03-20T05:08:49.883Z,100683.12
2019-03-20T05:11:22.898Z,100681.34
2019-03-20T05:13:53.908Z,100686.16
2019-03-20T05:16:24.161Z,100689.62
2019-03-20T05:18:58.375Z,100687.02
2019-03-20T05:21:35.989Z,100690.93
2019-03-20T05:24:07.726Z,100689.23
2019-03-20T05:26:45.779Z,100685.80
2019-03-20T05:29:17.149Z,100689.70
2019-03-20T05:31:54.447Z,100693.58
2019-03-20T05:34:27.895Z,100687.92
2019-03-20T05:37:09.866Z,100691.80
2019-03-20T05:39:35.111Z,100697.00
2019-03-20T05:42:06.889Z,100701.82
2019-03-20T05:44:36.351Z,100706.16
2019-03-20T05:47:06.383Z,100703.12
2019-03-20T05:49:35.644Z,100712.70
2019-03-20T05:52:08.693Z,100705.77
2019-03-20T05:54:40.350Z,100708.37
2019-03-20T05:57:12.651Z,100717.05
2019-03-20T05:59:43.460Z,100720.52
2019-03-20T06:02:12.881Z,100726.16
2019-03-20T06:04:42.051Z,100724.47
2019-03-20T06:07:21.190Z,100719.22
2019-03-20T06:09:42.154Z,100725.73
2019-03-20T06:12:11.343Z,100728.77
2019-03-20T06:14:40.673Z,100734.88
2019-03-20T06:17:10.316Z,100726.64
2019-03-20T06:19:43.627Z,100724.47
2019-03-20T06:22:16.473Z,100726.67
2019-03-20T06:24:46.264Z,100730.18
2019-03-20T06:27:16.831Z,100733.25
2019-03-20T06:29:52.173Z,100738.47
2019-03-20T06:32:23.705Z,100744.57
2019-03-20T06:35:09.734Z,100754.97
2019-03-20T06:37:44.364Z,100756.27
2019-03-20T06:40:24.758Z,100758.03
2019-03-20T06:42:57.837Z,100763.28
2019-03-20T06:45:34.499Z,100761.98
2019-03-20T06:48:08.060Z,100767.19
2019-03-20T06:50:50.243Z,100771.55
2019-03-20T06:53:22.645Z,100776.35
2019-03-20T06:56:01.065Z,100771.60
2019-03-20T06:58:38.531Z,100769.02
2019-03-20T07:01:17.016Z,100776.39
2019-03-20T07:04:07.857Z,100780.30
2019-03-20T07:06:47.345Z,100780.31
2019-03-20T07:09:32.963Z,100775.98
2019-03-20T07:12:06.873Z,100779.88
2019-03-20T07:14:37.525Z,100784.68
2019-03-20T07:17:10.886Z,100787.72
2019-03-20T07:19:42.380Z,100789.03
2019-03-20T07:22:11.760Z,100785.95
2019-03-20T07:24:41.652Z,100782.03
2019-03-20T07:27:12.060Z,100778.93
2019-03-20T07:29:41.261Z,100780.20
2019-03-20T07:32:12.326Z,100786.67
2019-03-20T07:34:45.400Z,100788.42
2019-03-20T07:37:14.600Z,100787.95
2019-03-20T07:39:43.826Z,100784.92
2019-03-20T07:42:12.994Z,100790.56
2019-03-20T07:44:42.171Z,100791.90
2019-03-20T07:47:13.626Z,100794.55
2019-03-20T07:49:43.041Z,100802.34
2019-03-20T07:52:13.713Z,100804.97
2019-03-20T07:54:43.608Z,100811.52
2019-03-20T07:57:14.612Z,100814.45
2019-03-20T07:59:44.183Z,100822.25
2019-03-20T08:02:13.433Z,100817.83
2019-03-20T08:04:42.623Z,100814.73
2019-03-20T08:07:12.055Z,100823.55
2019-03-20T08:09:41.501Z,100818.58
2019-03-20T08:12:11.054Z,100824.97
2019-03-20T08:14:40.238Z,100824.44
2019-03-20T08:17:10.154Z,100824.29
2019-03-20T08:19:40.506Z,100838.48
2019-03-20T08:22:09.755Z,100830.91
2019-03-20T08:24:39.554Z,100835.70
2019-03-20T08:27:16.296Z,100844.69
2019-03-20T08:29:46.505Z,100843.67
2019-03-20T08:32:15.734Z,100840.55
2019-03-20T08:34:46.039Z,100843.64
2019-03-20T08:37:15.351Z,100840.78
2019-03-20T08:39:44.568Z,100840.28
2019-03-20T08:42:13.760Z,100835.14
2019-03-20T08:44:43.081Z,100835.97
2019-03-20T08:47:12.595Z,100834.94
2019-03-20T08:49:42.198Z,100836.39
2019-03-20T08:52:11.501Z,100833.91
2019-03-20T08:54:40.693Z,100831.69
2019-03-20T08:57:09.926Z,100833.08
2019-03-20T08:59:45.407Z,100841.97
2019-03-20T09:02:15.203Z,100839.63
2019-03-20T09:04:46.558Z,100839.16
2019-03-20T09:07:16.172Z,100835.64
2019-03-20T09:09:45.336Z,100839.95
2019-03-20T09:12:14.534Z,100840.85
2019-03-20T09:14:54.185Z,100841.89
2019-03-20T09:17:23.521Z,100845.62
2019-03-20T09:19:52.743Z,100848.20
2019-03-20T09:22:21.944Z,100852.49
2019-03-20T09:24:58.832Z,100853.67
2019-03-20T09:27:31.445Z,100859.00
2019-03-20T09:30:01.345Z,100865.89
2019-03-20T09:32:31.298Z,100861.50
2019-03-20T09:35:02.987Z,100860.63
2019-03-20T09:37:32.570Z,100859.26
2019-03-20T09:40:02.107Z,100860.25
2019-03-20T09:42:31.822Z,100862.44
2019-03-20T09:45:01.619Z,100873.79
2019-03-20T09:47:32.520Z,100868.77
2019-03-20T09:50:13.880Z,100870.60
2019-03-20T09:52:43.839Z,100866.48
2019-03-20T09:55:14.879Z,100867.91
2019-03-20T09:57:44.870Z,100867.30
2019-03-20T10:00:21.947Z,100866.72
2019-03-20T10:02:51.451Z,100862.49
2019-03-20T10:05:23.836Z,100860.45
2019-03-20T10:07:54.659Z,100855.97
2019-03-20T10:10:24.665Z,100850.19
2019-03-20T10:12:55.924Z,100852.89
2019-03-20T10:15:25.176Z,100850.47
2019-03-20T10:17:55.077Z,100847.45
2019-03-20T10:20:24.586Z,100854.76
2019-03-20T10:22:54.323Z,100851.69
2019-03-20T10:25:23.881Z,100848.37
2019-03-20T10:27:53.050Z,100850.30
2019-03-20T10:30:24.092Z,100849.09
2019-03-20T10:32:56.708Z,100843.95
2019-03-20T10:35:26.462Z,100846.02
2019-03-20T10:37:56.577Z,100846.97
2019-03-20T10:40:26.098Z,100839.35
2019-03-20T10:42:58.075Z,100834.94
2019-03-20T10:45:27.529Z,100830.88
2019-03-20T10:47:58.260Z,100832.30
2019-03-20T10:50:28.275Z,100826.22
2019-03-20T10:52:58.827Z,100819.59
2019-03-20T10:55:30.177Z,100811.42
2019-03-20T10:57:59.618Z,100811.98
2019-03-20T11:00:29.203Z,100814.16
2019-03-20T11:02:58.764Z,100813.73
2019-03-20T11:05:28.492Z,100810.23
2019-03-20T11:07:59.410Z,100807.14
2019-03-20T11:10:28.623Z,100809.84
2019-03-20T11:12:57.900Z,100805.18
2019-03-20T11:15:29.747Z,100810.89
2019-03-20T11:17:58.599Z,100809.20
2019-03-20T11:20:29.061Z,100812.14
2019-03-20T11:22:58.595Z,100812.00
2019-03-20T11:25:28.721Z,100809.48
2019-03-20T11:27:59.437Z,100806.27
2019-03-20T11:30:30.241Z,100809.09
2019-03-20T11:33:01.522Z,100811.05
2019-03-20T11:35:32.824Z,100809.30
2019-03-20T11:38:03.239Z,100808.23
2019-03-20T11:40:35.122Z,100804.72
2019-03-20T11:43:04.946Z,100802.11
2019-03-20T11:45:34.757Z,100798.14
2019-03-20T11:48:09.767Z,100799.80
2019-03-20T11:50:39.690Z,100803.66
2019-03-20T11:53:09.618Z,100792.00
2019-03-20T11:55:42.901Z,100793.56
2019-03-20T11:58:12.957Z,100793.67
2019-03-20T12:00:42.718Z,100784.86
2019-03-20T12:03:13.132Z,100786.09
2019-03-20T12:05:43.109Z,100776.70
2019-03-20T12:08:12.873Z,100791.55
2019-03-20T12:10:44.228Z,100774.38
2019-03-20T12:13:18.032Z,100781.63
2019-03-20T12:15:48.224Z,100782.41
2019-03-20T12:18:17.787Z,100783.72
2019-03-20T12:20:49.734Z,100779.34
2019-03-20T12:23:23.133Z,100768.63
2019-03-20T12:25:55.171Z,100768.87
2019-03-20T12:28:28.117Z,100764.02
2019-03-20T12:30:58.729Z,100767.14
2019-03-20T12:33:29.665Z,100766.23
2019-03-20T12:36:01.161Z,100769.25
2019-03-20T12:38:31.185Z,100764.45
2019-03-20T12:41:01.280Z,100767.78
2019-03-20T12:43:32.821Z,100767.20
2019-03-20T12:46:02.246Z,100772.36
2019-03-20T12:48:33.259Z,100767.75
2019-03-20T12:51:02.996Z,100768.86
2019-03-20T12:53:32.645Z,100766.75
2019-03-20T12:56:06.254Z,100762.48
2019-03-20T12:58:36.206Z,100751.55
2019-03-20T13:01:07.040Z,100750.65
2019-03-20T13:03:38.274Z,100757.36
2019-03-20T13:06:09.360Z,100760.44
2019-03-20T13:08:38.547Z,100760.92
2019-03-20T13:11:10.712Z,100755.52
2019-03-20T13:13:40.231Z,100748.36
2019-03-20T13:16:11.133Z,100753.45
2019-03-20T13:18:41.833Z,100743.31
2019-03-20T13:21:11.372Z,100734.23
2019-03-20T13:23:41.092Z,100738.66
2019-03-20T13:26:16.491Z,100741.81
2019-03-20T13:28:46.781Z,100735.50
2019-03-20T13:31:19.670Z,100740.88
2019-03-20T13:33:57.075Z,100742.22
2019-03-20T13:36:26.751Z,100736.17
2019-03-20T13:38:58.368Z,100731.97
2019-03-20T13:41:29.359Z,100733.31
2019-03-20T13:44:04.245Z,100737.30
2019-03-20T13:46:33.718Z,100737.97
2019-03-20T13:49:03.751Z,100737.86
2019-03-20T13:51:33.774Z,100735.14
2019-03-20T13:54:03.628Z,100729.78
2019-03-20T13:56:37.195Z,100728.31
2019-03-20T13:59:08.998Z,100723.05
2019-03-20T14:01:38.180Z,100725.21
2019-03-20T14:04:07.383Z,100718.53
2019-03-20T14:06:41.034Z,100717.45
2019-03-20T14:09:12.630Z,100719.48
2019-03-20T14:11:47.565Z,100712.17
2019-03-20T14:14:16.747Z,100713.45
2019-03-20T14:16:48.611Z,100715.19
2019-03-20T14:19:18.081Z,100717.50
2019-03-20T14:21:47.309Z,100718.05
2019-03-20T14:24:18.207Z,100710.63
2019-03-20T14:26:47.850Z,100710.12
2019-03-20T14:29:19.923Z,100722.33
2019-03-20T14:31:49.115Z,100734.27
2019-03-20T14:34:19.028Z,100736.60
2019-03-20T14:36:49.027Z,100737.12
2019-03-20T14:39:41.900Z,100750.38
2019-03-20T14:42:11.483Z,100743.94
2019-03-20T14:44:41.305Z,100733.99
2019-03-20T14:47:12.596Z,100729.42
2019-03-20T14:49:42.270Z,100722.45
2019-03-20T14:52:17.643Z,100730.33
2019-03-20T14:54:54.616Z,100725.39
2019-03-20T14:57:24.414Z,100722.48
2019-03-20T14:59:54.515Z,100717.24
2019-03-20T15:02:23.998Z,100718.19
2019-03-20T15:04:53.830Z,100724.17
2019-03-20T15:07:23.543Z,100738.50
2019-03-20T15:09:53.029Z,100730.94
2019-03-20T15:12:23.094Z,100724.67
2019-03-20T15:14:52.274Z,100725.02
2019-03-20T15:17:21.773Z,100721.84
2019-03-20T15:19:51.168Z,100719.48
2019-03-20T15:22:20.415Z,100716.92
2019-03-20T15:25:00.550Z,100718.10
2019-03-20T15:27:29.754Z,100714.86
2019-03-20T15:29:58.945Z,100709.02
2019-03-20T15:32:29.272Z,100710.07
2019-03-20T15:34:59.279Z,100709.76
2019-03-20T15:37:28.797Z,100708.17
2019-03-20T15:39:58.238Z,100701.49
2019-03-20T15:42:29.924Z,100703.38
2019-03-20T15:44:59.390Z,100705.80
2019-03-20T15:47:29.714Z,100695.14
2019-03-20T15:49:58.897Z,100688.42
2019-03-20T15:52:28.924Z,100694.61
2019-03-20T15:55:00.421Z,100690.22
2019-03-20T15:57:31.198Z,100686.83
2019-03-20T16:00:00.711Z,100681.63
2019-03-20T16:02:30.664Z,100684.13
2019-03-20T16:04:59.995Z,100686.70
2019-03-20T16:07:30.050Z,100683.31
2019-03-20T16:09:59.529Z,100682.99
2019-03-20T16:12:28.941Z,100678.06
2019-03-20T16:14:59.662Z,100675.13
2019-03-20T16:17:31.705Z,100667.36
2019-03-20T16:20:05.494Z,100669.17
2019-03-20T16:22:35.668Z,100668.00
2019-03-20T16:25:06.397Z,100663.72
2019-03-20T16:27:35.606Z,100670.77
2019-03-20T16:30:12.783Z,100672.89
2019-03-20T16:32:44.714Z,100669.00
2019-03-20T16:35:13.939Z,100672.86
2019-03-20T16:37:43.381Z,100673.57
2019-03-20T16:40:18.300Z,100672.31
2019-03-20T16:42:49.720Z,100675.05
2019-03-20T16:45:24.063Z,100670.33
2019-03-20T16:47:53.231Z,100666.23
2019-03-20T16:50:23.217Z,100666.77
2019-03-20T16:52:53.000Z,100673.40
2019-03-20T16:55:22.914Z,100666.48
2019-03-20T16:57:55.619Z,100666.67
2019-03-20T17:00:27.025Z,100669.22
2019-03-20T17:02:56.651Z,100672.09
2019-03-20T17:05:28.025Z,100668.96
2019-03-20T17:07:57.656Z,100674.32
2019-03-20T17:10:29.386Z,100678.16
2019-03-20T17:13:01.897Z,100677.66
2019-03-20T17:15:31.964Z,100682.72
2019-03-20T17:18:02.755Z,100691.77
2019-03-20T17:20:32.721Z,100691.47
2019-03-20T17:23:07.757Z,100686.60
2019-03-20T17:25:38.220Z,100693.75
2019-03-20T17:28:08.823Z,100693.37
2019-03-20T17:30:38.958Z,100696.59
2019-03-20T17:33:08.493Z,100698.58
2019-03-20T17:35:38.921Z,100700.33
2019-03-20T17:38:08.498Z,100701.39
2019-03-20T17:40:37.956Z,100719.61
2019-03-20T17:43:07.314Z,100714.28
2019-03-20T17:45:38.577Z,100714.53
2019-03-20T17:48:08.114Z,100714.83
2019-03-20T17:50:38.422Z,100722.89
2019-03-20T17:53:07.641Z,100721.09
2019-03-20T17:55:38.338Z,100721.25
2019-03-20T17:58:11.558Z,100723.06
2019-03-20T18:00:45.748Z,100729.38
2019-03-20T18:03:14.974Z,100728.97
2019-03-20T18:05:45.365Z,100730.63
2019-03-20T18:08:15.676Z,100735.30
2019-03-20T18:10:45.554Z,100739.34
2019-03-20T18:13:15.037Z,100740.43
2019-03-20T18:15:46.974Z,100746.50
2019-03-20T18:18:19.435Z,100745.86
2019-03-20T18:20:48.645Z,100743.80
2019-03-20T18:23:20.552Z,100751.65
2019-03-20T18:25:50.027Z,100757.30
2019-03-20T18:28:21.733Z,100760.09
2019-03-20T18:30:52.056Z,100762.41
2019-03-20T18:33:21.785Z,100755.77
2019-03-20T18:35:54.743Z,100757.47
2019-03-20T18:38:25.773Z,100756.13
2019-03-20T18:40:56.197Z,100756.66
2019-03-20T18:43:25.731Z,100757.72
2019-03-20T18:45:56.125Z,100755.93
2019-03-20T18:48:25.303Z,100754.34
2019-03-20T18:50:54.520Z,100757.89
2019-03-20T18:53:24.281Z,100756.34
2019-03-20T18:55:53.785Z,100761.91
2019-03-20T18:58:25.137Z,100760.14
2019-03-20T19:00:54.373Z,100765.12
2019-03-20T19:03:26.166Z,100765.38
2019-03-20T19:06:04.226Z,100766.57
2019-03-20T19:08:34.735Z,100774.86
2019-03-20T19:11:06.161Z,100771.59
2019-03-20T19:13:35.909Z,100773.16
2019-03-20T19:16:06.485Z,100775.12
2019-03-20T19:18:35.513Z,100776.25
2019-03-20T19:21:04.981Z,100773.34
2019-03-20T19:23:34.481Z,100781.50
2019-03-20T19:26:03.657Z,100775.19
2019-03-20T19:28:33.400Z,100777.52
2019-03-20T19:31:02.577Z,100777.59
2019-03-20T19:33:32.343Z,100788.77
2019-03-20T19:36:01.508Z,100796.35
2019-03-20T19:38:35.112Z,100799.92
2019-03-20T19:41:03.150Z,100791.23
2019-03-20T19:43:32.358Z,100798.20
2019-03-20T19:46:01.802Z,100788.16
2019-03-20T19:48:31.691Z,100787.33
2019-03-20T19:51:01.103Z,100790.89
2019-03-20T19:53:30.619Z,100796.13
2019-03-20T19:56:00.816Z,100796.36
2019-03-20T19:58:30.503Z,100801.30
2019-03-20T20:01:00.013Z,100801.95
2019-03-20T20:03:29.483Z,100806.52
2019-03-20T20:05:58.838Z,100808.91
2019-03-20T20:08:28.591Z,100817.05
2019-03-20T20:10:58.184Z,100814.54
2019-03-20T20:13:29.153Z,100813.91
2019-03-20T20:15:58.322Z,100813.21
2019-03-20T20:18:27.505Z,100808.84
2019-03-20T20:20:56.766Z,100810.09
2019-03-20T20:23:26.249Z,100811.41
2019-03-20T20:25:57.765Z,100814.95
2019-03-20T20:28:27.271Z,100817.70
2019-03-20T20:30:58.793Z,100820.44
2019-03-20T20:33:29.047Z,100820.72
2019-03-20T20:35:58.501Z,100827.56
2019-03-20T20:38:32.039Z,100829.00
2019-03-20T20:41:02.873Z,100824.39
2019-03-20T20:43:39.944Z,100826.56
2019-03-20T20:46:09.575Z,100823.61
2019-03-20T20:48:39.788Z,100826.64
2019-03-20T20:51:08.960Z,100824.63
2019-03-20T20:53:38.402Z,100821.82
2019-03-20T20:56:12.881Z,100821.02
2019-03-20T20:58:42.104Z,100825.30
2019-03-20T21:01:16.078Z,100826.39
2019-03-20T21:03:46.352Z,100835.12
2019-03-20T21:06:16.206Z,100830.22
2019-03-20T21:08:46.225Z,100832.16
2019-03-20T21:11:15.438Z,100835.39
2019-03-20T21:14:10.372Z,100829.58
2019-03-20T21:16:40.087Z,100827.08
2019-03-20T21:19:37.648Z,100827.98
2019-03-20T21:22:46.243Z,100826.20
2019-03-20T21:25:20.209Z,100831.67
2019-03-20T21:28:22.804Z,100835.12
2019-03-20T21:31:44.577Z,100826.85
2019-03-20T21:35:15.529Z,100832.03
2019-03-20T21:38:05.943Z,100841.34
2019-03-20T21:41:07.957Z,100839.30
2019-03-20T21:43:55.228Z,100848.64
2019-03-20T21:46:56.661Z,100853.13
2019-03-20T21:49:26.731Z,100853.36
2019-03-20T21:51:56.458Z,100852.92
2019-03-20T21:55:02.711Z,100854.61
2019-03-20T21:58:04.849Z,100858.38
2019-03-20T22:01:11.097Z,100857.50
2019-03-20T22:03:43.672Z,100855.91
2019-03-20T22:06:38.013Z,100856.89
2019-03-20T22:09:27.794Z,100856.72
2019-03-20T22:12:16.708Z,100851.80
2019-03-20T22:14:51.335Z,100854.22
2019-03-20T22:17:57.296Z,100849.30
2019-03-20T22:21:10.623Z,100849.62
2019-03-20T22:24:31.195Z,100844.02
2019-03-20T22:27:31.988Z,100843.24
2019-03-20T22:30:02.207Z,100843.00
2019-03-20T22:33:11.289Z,100839.20
2019-03-20T22:35:58.094Z,100838.44
2019-03-20T22:39:13.887Z,100845.51
2019-03-20T22:42:07.231Z,100842.42
2019-03-20T22:44:41.030Z,100843.46
2019-03-20T22:48:07.338Z,100838.52
2019-03-20T22:50:50.799Z,100847.03
2019-03-20T22:54:16.668Z,100843.13
2019-03-20T22:57:08.262Z,100837.72
2019-03-20T22:59:40.581Z,100838.41
2019-03-20T23:02:17.560Z,100833.64
2019-03-20T23:04:50.387Z,100837.97
2019-03-20T23:07:22.178Z,100840.98
2019-03-20T23:09:52.425Z,100833.87
2019-03-20T23:12:23.151Z,100829.83
2019-03-20T23:14:53.917Z,100829.00
2019-03-20T23:17:24.443Z,100831.94
2019-03-20T23:19:56.232Z,100831.07
2019-03-20T23:22:27.091Z,100830.23
2019-03-20T23:24:57.125Z,100828.02
2019-03-20T23:27:29.277Z,100830.04
2019-03-20T23:30:00.805Z,100832.48
2019-03-20T23:32:30.857Z,100838.38
2019-03-20T23:35:00.954Z,100837.16
2019-03-20T23:37:33.212Z,100837.52
2019-03-20T23:40:07.991Z,100827.34
2019-03-20T23:42:37.858Z,100830.57
2019-03-20T23:45:10.214Z,100834.39
2019-03-20T23:47:55.963Z,100832.98
2019-03-20T23:50:26.007Z,100828.59
2019-03-20T23:52:56.527Z,100828.15
2019-03-20T23:55:26.479Z,100825.55
2019-03-20T23:57:56.231Z,100839.08
